sensor_id;sensor_type;location;lat;lon;timestamp;P1;durP1;ratioP1;P2;durP2;ratioP2
19364;SDS011;9818;48.382;10.850;2023-10-31T00:00:24;9.93;;;4.10;;
19364;SDS011;9818;48.382;10.850;2023-10-31T00:02:56;8.40;;;3.63;;
19364;SDS011;9818;48.382;10.850;2023-10-31T00:05:25;11.20;;;3.70;;
19364;SDS011;9818;48.382;10.850;2023-10-31T00:07:53;9.97;;;3.57;;
19364;SDS011;9818;48.382;10.850;2023-10-31T00:10:22;6.93;;;3.80;;
19364;SDS011;9818;48.382;10.850;2023-10-31T00:12:51;13.67;;;4.10;;
19364;SDS011;9818;48.382;10.850;2023-10-31T00:15:20;9.53;;;4.20;;
19364;SDS011;9818;48.382;10.850;2023-10-31T00:17:50;17.57;;;4.10;;
19364;SDS011;9818;48.382;10.850;2023-10-31T00:20:21;7.87;;;3.17;;
19364;SDS011;9818;48.382;10.850;2023-10-31T00:22:50;13.27;;;4.67;;
19364;SDS011;9818;48.382;10.850;2023-10-31T00:25:19;10.43;;;3.50;;
19364;SDS011;9818;48.382;10.850;2023-10-31T00:27:47;9.87;;;3.93;;
19364;SDS011;9818;48.382;10.850;2023-10-31T00:30:16;8.73;;;3.17;;
19364;SDS011;9818;48.382;10.850;2023-10-31T00:32:46;6.37;;;3.57;;
19364;SDS011;9818;48.382;10.850;2023-10-31T00:35:15;6.30;;;3.43;;
19364;SDS011;9818;48.382;10.850;2023-10-31T00:37:47;6.50;;;3.20;;
19364;SDS011;9818;48.382;10.850;2023-10-31T00:40:15;7.47;;;3.47;;
19364;SDS011;9818;48.382;10.850;2023-10-31T00:42:45;8.63;;;3.20;;
19364;SDS011;9818;48.382;10.850;2023-10-31T00:45:14;5.63;;;3.70;;
19364;SDS011;9818;48.382;10.850;2023-10-31T00:47:43;4.43;;;3.37;;
19364;SDS011;9818;48.382;10.850;2023-10-31T00:50:12;8.97;;;3.50;;
19364;SDS011;9818;48.382;10.850;2023-10-31T00:52:40;4.57;;;3.53;;
19364;SDS011;9818;48.382;10.850;2023-10-31T00:55:12;4.90;;;3.37;;
19364;SDS011;9818;48.382;10.850;2023-10-31T00:57:41;5.30;;;3.23;;
19364;SDS011;9818;48.382;10.850;2023-10-31T01:00:10;6.10;;;3.33;;
19364;SDS011;9818;48.382;10.850;2023-10-31T01:02:39;4.60;;;3.10;;
19364;SDS011;9818;48.382;10.850;2023-10-31T01:05:08;5.40;;;2.90;;
19364;SDS011;9818;48.382;10.850;2023-10-31T01:07:39;6.67;;;3.37;;
19364;SDS011;9818;48.382;10.850;2023-10-31T01:10:08;4.77;;;3.17;;
19364;SDS011;9818;48.382;10.850;2023-10-31T01:12:40;6.80;;;3.47;;
19364;SDS011;9818;48.382;10.850;2023-10-31T01:15:09;8.33;;;3.10;;
19364;SDS011;9818;48.382;10.850;2023-10-31T01:17:38;4.27;;;2.80;;
19364;SDS011;9818;48.382;10.850;2023-10-31T01:20:07;4.00;;;3.00;;
19364;SDS011;9818;48.382;10.850;2023-10-31T01:22:37;4.50;;;3.27;;
19364;SDS011;9818;48.382;10.850;2023-10-31T01:25:06;11.27;;;3.17;;
19364;SDS011;9818;48.382;10.850;2023-10-31T01:27:38;8.70;;;3.43;;
19364;SDS011;9818;48.382;10.850;2023-10-31T01:30:07;11.20;;;3.50;;
19364;SDS011;9818;48.382;10.850;2023-10-31T01:32:37;9.93;;;2.73;;
19364;SDS011;9818;48.382;10.850;2023-10-31T01:35:06;7.97;;;3.10;;
19364;SDS011;9818;48.382;10.850;2023-10-31T01:37:35;7.10;;;2.97;;
19364;SDS011;9818;48.382;10.850;2023-10-31T01:40:05;10.17;;;3.47;;
19364;SDS011;9818;48.382;10.850;2023-10-31T01:42:38;6.17;;;3.00;;
19364;SDS011;9818;48.382;10.850;2023-10-31T01:45:07;8.17;;;2.90;;
19364;SDS011;9818;48.382;10.850;2023-10-31T01:47:36;9.00;;;3.13;;
19364;SDS011;9818;48.382;10.850;2023-10-31T01:50:06;7.93;;;3.23;;
19364;SDS011;9818;48.382;10.850;2023-10-31T01:52:36;8.07;;;3.30;;
19364;SDS011;9818;48.382;10.850;2023-10-31T01:55:06;7.37;;;3.17;;
19364;SDS011;9818;48.382;10.850;2023-10-31T01:57:39;7.03;;;2.83;;
19364;SDS011;9818;48.382;10.850;2023-10-31T02:00:09;6.40;;;3.10;;
19364;SDS011;9818;48.382;10.850;2023-10-31T02:02:39;5.47;;;2.73;;
19364;SDS011;9818;48.382;10.850;2023-10-31T02:05:09;7.63;;;2.87;;
19364;SDS011;9818;48.382;10.850;2023-10-31T02:07:38;5.73;;;2.77;;
19364;SDS011;9818;48.382;10.850;2023-10-31T02:10:07;6.53;;;2.80;;
19364;SDS011;9818;48.382;10.850;2023-10-31T02:12:39;7.10;;;2.77;;
19364;SDS011;9818;48.382;10.850;2023-10-31T02:15:08;7.10;;;2.93;;
19364;SDS011;9818;48.382;10.850;2023-10-31T02:17:37;11.60;;;2.80;;
19364;SDS011;9818;48.382;10.850;2023-10-31T02:20:07;7.23;;;2.67;;
19364;SDS011;9818;48.382;10.850;2023-10-31T02:22:39;7.53;;;2.83;;
19364;SDS011;9818;48.382;10.850;2023-10-31T02:25:15;9.87;;;3.23;;
19364;SDS011;9818;48.382;10.850;2023-10-31T02:27:44;6.77;;;2.87;;
19364;SDS011;9818;48.382;10.850;2023-10-31T02:30:13;6.73;;;2.63;;
19364;SDS011;9818;48.382;10.850;2023-10-31T02:32:42;4.73;;;2.90;;
19364;SDS011;9818;48.382;10.850;2023-10-31T02:35:13;5.47;;;2.93;;
19364;SDS011;9818;48.382;10.850;2023-10-31T02:37:46;5.47;;;2.80;;
19364;SDS011;9818;48.382;10.850;2023-10-31T02:40:15;3.60;;;2.37;;
19364;SDS011;9818;48.382;10.850;2023-10-31T02:42:44;4.17;;;2.70;;
19364;SDS011;9818;48.382;10.850;2023-10-31T02:45:13;5.30;;;2.60;;
19364;SDS011;9818;48.382;10.850;2023-10-31T02:47:42;3.43;;;2.70;;
19364;SDS011;9818;48.382;10.850;2023-10-31T02:50:11;4.73;;;2.57;;
19364;SDS011;9818;48.382;10.850;2023-10-31T02:52:39;5.07;;;2.57;;
19364;SDS011;9818;48.382;10.850;2023-10-31T02:55:11;4.80;;;2.47;;
19364;SDS011;9818;48.382;10.850;2023-10-31T02:57:40;3.57;;;2.47;;
19364;SDS011;9818;48.382;10.850;2023-10-31T03:00:09;3.90;;;2.50;;
19364;SDS011;9818;48.382;10.850;2023-10-31T03:02:39;4.20;;;2.47;;
19364;SDS011;9818;48.382;10.850;2023-10-31T03:05:08;6.63;;;3.00;;
19364;SDS011;9818;48.382;10.850;2023-10-31T03:07:36;6.10;;;2.40;;
19364;SDS011;9818;48.382;10.850;2023-10-31T03:10:06;6.50;;;2.60;;
19364;SDS011;9818;48.382;10.850;2023-10-31T03:12:38;6.63;;;2.33;;
19364;SDS011;9818;48.382;10.850;2023-10-31T03:15:07;2.97;;;2.30;;
19364;SDS011;9818;48.382;10.850;2023-10-31T03:17:36;5.20;;;2.37;;
19364;SDS011;9818;48.382;10.850;2023-10-31T03:20:06;7.73;;;3.77;;
19364;SDS011;9818;48.382;10.850;2023-10-31T03:22:35;6.27;;;2.90;;
19364;SDS011;9818;48.382;10.850;2023-10-31T03:25:04;4.93;;;2.47;;
19364;SDS011;9818;48.382;10.850;2023-10-31T03:27:34;8.93;;;3.00;;
19364;SDS011;9818;48.382;10.850;2023-10-31T03:30:07;6.63;;;3.00;;
19364;SDS011;9818;48.382;10.850;2023-10-31T03:32:36;2.87;;;2.30;;
19364;SDS011;9818;48.382;10.850;2023-10-31T03:35:05;5.97;;;2.37;;
19364;SDS011;9818;48.382;10.850;2023-10-31T03:37:35;7.23;;;2.73;;
19364;SDS011;9818;48.382;10.850;2023-10-31T03:40:08;9.90;;;2.80;;
19364;SDS011;9818;48.382;10.850;2023-10-31T03:42:39;5.67;;;2.40;;
19364;SDS011;9818;48.382;10.850;2023-10-31T03:45:09;7.97;;;2.27;;
19364;SDS011;9818;48.382;10.850;2023-10-31T03:47:38;6.57;;;2.50;;
19364;SDS011;9818;48.382;10.850;2023-10-31T03:50:09;8.43;;;2.47;;
19364;SDS011;9818;48.382;10.850;2023-10-31T03:52:38;5.50;;;2.40;;
19364;SDS011;9818;48.382;10.850;2023-10-31T03:55:07;5.57;;;2.50;;
19364;SDS011;9818;48.382;10.850;2023-10-31T03:57:36;6.83;;;2.20;;
19364;SDS011;9818;48.382;10.850;2023-10-31T04:00:08;4.80;;;2.50;;
19364;SDS011;9818;48.382;10.850;2023-10-31T04:02:39;4.87;;;2.53;;
19364;SDS011;9818;48.382;10.850;2023-10-31T04:05:08;3.90;;;2.10;;
19364;SDS011;9818;48.382;10.850;2023-10-31T04:07:37;7.73;;;2.83;;
19364;SDS011;9818;48.382;10.850;2023-10-31T04:10:06;4.63;;;2.30;;
19364;SDS011;9818;48.382;10.850;2023-10-31T04:12:36;11.07;;;2.70;;
19364;SDS011;9818;48.382;10.850;2023-10-31T04:15:05;7.80;;;2.17;;
19364;SDS011;9818;48.382;10.850;2023-10-31T04:17:37;7.40;;;2.40;;
19364;SDS011;9818;48.382;10.850;2023-10-31T04:20:06;4.93;;;2.20;;
19364;SDS011;9818;48.382;10.850;2023-10-31T04:22:36;11.47;;;2.37;;
19364;SDS011;9818;48.382;10.850;2023-10-31T04:25:05;7.03;;;2.50;;
19364;SDS011;9818;48.382;10.850;2023-10-31T04:27:34;4.43;;;2.60;;
19364;SDS011;9818;48.382;10.850;2023-10-31T04:30:03;5.70;;;2.43;;
19364;SDS011;9818;48.382;10.850;2023-10-31T04:32:35;6.90;;;2.57;;
19364;SDS011;9818;48.382;10.850;2023-10-31T04:35:04;3.57;;;2.03;;
19364;SDS011;9818;48.382;10.850;2023-10-31T04:37:33;8.10;;;2.40;;
19364;SDS011;9818;48.382;10.850;2023-10-31T04:40:02;11.30;;;2.60;;
19364;SDS011;9818;48.382;10.850;2023-10-31T04:42:32;13.90;;;3.03;;
19364;SDS011;9818;48.382;10.850;2023-10-31T04:45:01;8.10;;;2.67;;
19364;SDS011;9818;48.382;10.850;2023-10-31T04:47:30;7.40;;;2.30;;
19364;SDS011;9818;48.382;10.850;2023-10-31T04:50:02;5.87;;;2.13;;
19364;SDS011;9818;48.382;10.850;2023-10-31T04:52:31;5.67;;;1.97;;
19364;SDS011;9818;48.382;10.850;2023-10-31T04:55:00;7.37;;;2.13;;
19364;SDS011;9818;48.382;10.850;2023-10-31T04:57:29;6.10;;;2.00;;
19364;SDS011;9818;48.382;10.850;2023-10-31T04:59:57;5.63;;;2.03;;
19364;SDS011;9818;48.382;10.850;2023-10-31T05:02:26;8.03;;;2.20;;
19364;SDS011;9818;48.382;10.850;2023-10-31T05:04:55;4.43;;;2.10;;
19364;SDS011;9818;48.382;10.850;2023-10-31T05:07:27;10.27;;;2.00;;
19364;SDS011;9818;48.382;10.850;2023-10-31T05:09:57;5.63;;;1.90;;
19364;SDS011;9818;48.382;10.850;2023-10-31T05:12:26;8.30;;;2.57;;
19364;SDS011;9818;48.382;10.850;2023-10-31T05:14:55;35.53;;;3.93;;
19364;SDS011;9818;48.382;10.850;2023-10-31T05:17:23;21.50;;;3.03;;
19364;SDS011;9818;48.382;10.850;2023-10-31T05:19:52;10.60;;;2.53;;
19364;SDS011;9818;48.382;10.850;2023-10-31T05:22:21;12.27;;;2.27;;
19364;SDS011;9818;48.382;10.850;2023-10-31T05:24:53;13.60;;;2.30;;
19364;SDS011;9818;48.382;10.850;2023-10-31T05:27:22;5.70;;;2.30;;
19364;SDS011;9818;48.382;10.850;2023-10-31T05:29:51;9.47;;;2.50;;
19364;SDS011;9818;48.382;10.850;2023-10-31T05:32:20;6.57;;;2.20;;
19364;SDS011;9818;48.382;10.850;2023-10-31T05:34:49;5.93;;;1.87;;
19364;SDS011;9818;48.382;10.850;2023-10-31T05:37:17;7.97;;;2.33;;
19364;SDS011;9818;48.382;10.850;2023-10-31T05:39:46;3.90;;;1.70;;
19364;SDS011;9818;48.382;10.850;2023-10-31T05:42:18;7.93;;;2.20;;
19364;SDS011;9818;48.382;10.850;2023-10-31T05:44:48;7.17;;;1.90;;
19364;SDS011;9818;48.382;10.850;2023-10-31T05:47:17;10.10;;;2.23;;
19364;SDS011;9818;48.382;10.850;2023-10-31T05:49:46;8.63;;;2.30;;
19364;SDS011;9818;48.382;10.850;2023-10-31T05:52:14;6.47;;;2.03;;
19364;SDS011;9818;48.382;10.850;2023-10-31T05:54:43;6.40;;;1.90;;
19364;SDS011;9818;48.382;10.850;2023-10-31T05:57:12;9.87;;;1.97;;
19364;SDS011;9818;48.382;10.850;2023-10-31T05:59:43;8.97;;;1.77;;
19364;SDS011;9818;48.382;10.850;2023-10-31T06:02:12;9.40;;;2.93;;
19364;SDS011;9818;48.382;10.850;2023-10-31T06:04:42;7.13;;;1.87;;
19364;SDS011;9818;48.382;10.850;2023-10-31T06:07:10;7.40;;;1.93;;
19364;SDS011;9818;48.382;10.850;2023-10-31T06:09:39;4.57;;;1.90;;
19364;SDS011;9818;48.382;10.850;2023-10-31T06:12:08;7.73;;;1.90;;
19364;SDS011;9818;48.382;10.850;2023-10-31T06:14:37;6.33;;;1.87;;
19364;SDS011;9818;48.382;10.850;2023-10-31T06:17:09;4.70;;;2.00;;
19364;SDS011;9818;48.382;10.850;2023-10-31T06:19:38;5.33;;;1.97;;
19364;SDS011;9818;48.382;10.850;2023-10-31T06:22:10;4.00;;;1.40;;
19364;SDS011;9818;48.382;10.850;2023-10-31T06:24:39;14.67;;;2.23;;
19364;SDS011;9818;48.382;10.850;2023-10-31T06:27:08;10.83;;;1.90;;
19364;SDS011;9818;48.382;10.850;2023-10-31T06:29:37;7.47;;;2.30;;
19364;SDS011;9818;48.382;10.850;2023-10-31T06:32:06;5.17;;;2.07;;
19364;SDS011;9818;48.382;10.850;2023-10-31T06:34:37;6.20;;;2.30;;
19364;SDS011;9818;48.382;10.850;2023-10-31T06:37:06;20.40;;;2.47;;
19364;SDS011;9818;48.382;10.850;2023-10-31T06:39:35;11.93;;;2.10;;
19364;SDS011;9818;48.382;10.850;2023-10-31T06:42:04;9.37;;;2.43;;
19364;SDS011;9818;48.382;10.850;2023-10-31T06:44:33;9.27;;;2.40;;
19364;SDS011;9818;48.382;10.850;2023-10-31T06:47:02;14.50;;;2.50;;
19364;SDS011;9818;48.382;10.850;2023-10-31T06:49:33;12.40;;;2.43;;
19364;SDS011;9818;48.382;10.850;2023-10-31T06:52:02;12.20;;;2.53;;
19364;SDS011;9818;48.382;10.850;2023-10-31T06:54:32;8.87;;;2.53;;
19364;SDS011;9818;48.382;10.850;2023-10-31T06:57:01;10.50;;;2.67;;
19364;SDS011;9818;48.382;10.850;2023-10-31T06:59:29;7.40;;;2.30;;
19364;SDS011;9818;48.382;10.850;2023-10-31T07:01:58;11.37;;;2.63;;
19364;SDS011;9818;48.382;10.850;2023-10-31T07:04:27;7.27;;;2.83;;
19364;SDS011;9818;48.382;10.850;2023-10-31T07:06:58;7.13;;;2.20;;
19364;SDS011;9818;48.382;10.850;2023-10-31T07:09:27;14.93;;;2.33;;
19364;SDS011;9818;48.382;10.850;2023-10-31T07:11:56;4.93;;;2.20;;
19364;SDS011;9818;48.382;10.850;2023-10-31T07:14:25;7.50;;;2.27;;
19364;SDS011;9818;48.382;10.850;2023-10-31T07:16:55;5.33;;;1.90;;
19364;SDS011;9818;48.382;10.850;2023-10-31T07:19:24;5.73;;;2.23;;
19364;SDS011;9818;48.382;10.850;2023-10-31T07:21:53;6.30;;;2.27;;
19364;SDS011;9818;48.382;10.850;2023-10-31T07:24:25;4.20;;;1.80;;
19364;SDS011;9818;48.382;10.850;2023-10-31T07:26:54;6.73;;;1.93;;
19364;SDS011;9818;48.382;10.850;2023-10-31T07:29:23;6.60;;;2.00;;
19364;SDS011;9818;48.382;10.850;2023-10-31T07:31:51;3.87;;;1.83;;
19364;SDS011;9818;48.382;10.850;2023-10-31T07:34:20;5.50;;;1.87;;
19364;SDS011;9818;48.382;10.850;2023-10-31T07:36:49;6.10;;;1.90;;
19364;SDS011;9818;48.382;10.850;2023-10-31T07:39:18;6.10;;;1.87;;
19364;SDS011;9818;48.382;10.850;2023-10-31T07:41:49;4.80;;;2.00;;
19364;SDS011;9818;48.382;10.850;2023-10-31T07:44:18;4.80;;;1.57;;
19364;SDS011;9818;48.382;10.850;2023-10-31T07:46:47;4.93;;;1.80;;
19364;SDS011;9818;48.382;10.850;2023-10-31T07:49:16;4.43;;;1.77;;
19364;SDS011;9818;48.382;10.850;2023-10-31T07:51:45;2.40;;;1.77;;
19364;SDS011;9818;48.382;10.850;2023-10-31T07:54:14;4.30;;;1.70;;
19364;SDS011;9818;48.382;10.850;2023-10-31T07:56:43;5.37;;;2.00;;
19364;SDS011;9818;48.382;10.850;2023-10-31T07:59:14;5.43;;;1.80;;
19364;SDS011;9818;48.382;10.850;2023-10-31T08:01:43;2.57;;;1.70;;
19364;SDS011;9818;48.382;10.850;2023-10-31T08:04:13;3.60;;;1.77;;
19364;SDS011;9818;48.382;10.850;2023-10-31T08:06:42;5.63;;;1.53;;
19364;SDS011;9818;48.382;10.850;2023-10-31T08:09:11;4.83;;;1.80;;
19364;SDS011;9818;48.382;10.850;2023-10-31T08:11:41;2.83;;;1.80;;
19364;SDS011;9818;48.382;10.850;2023-10-31T08:14:10;4.80;;;1.67;;
19364;SDS011;9818;48.382;10.850;2023-10-31T08:16:43;4.10;;;1.60;;
19364;SDS011;9818;48.382;10.850;2023-10-31T08:19:12;2.27;;;1.40;;
19364;SDS011;9818;48.382;10.850;2023-10-31T08:21:41;6.73;;;1.57;;
19364;SDS011;9818;48.382;10.850;2023-10-31T08:24:09;3.77;;;1.63;;
19364;SDS011;9818;48.382;10.850;2023-10-31T08:26:38;4.17;;;1.60;;
19364;SDS011;9818;48.382;10.850;2023-10-31T08:29:07;2.87;;;1.53;;
19364;SDS011;9818;48.382;10.850;2023-10-31T08:31:36;3.10;;;1.70;;
19364;SDS011;9818;48.382;10.850;2023-10-31T08:34:07;3.10;;;1.33;;
19364;SDS011;9818;48.382;10.850;2023-10-31T08:36:36;1.90;;;1.37;;
19364;SDS011;9818;48.382;10.850;2023-10-31T08:39:05;2.60;;;1.67;;
19364;SDS011;9818;48.382;10.850;2023-10-31T08:41:34;5.17;;;1.40;;
19364;SDS011;9818;48.382;10.850;2023-10-31T08:44:05;3.47;;;1.40;;
19364;SDS011;9818;48.382;10.850;2023-10-31T08:46:34;2.23;;;1.53;;
19364;SDS011;9818;48.382;10.850;2023-10-31T08:49:02;2.20;;;1.37;;
19364;SDS011;9818;48.382;10.850;2023-10-31T08:51:34;2.67;;;1.37;;
19364;SDS011;9818;48.382;10.850;2023-10-31T08:54:03;2.87;;;1.30;;
19364;SDS011;9818;48.382;10.850;2023-10-31T08:56:32;2.67;;;1.30;;
19364;SDS011;9818;48.382;10.850;2023-10-31T08:59:01;2.57;;;1.50;;
19364;SDS011;9818;48.382;10.850;2023-10-31T09:01:29;1.77;;;1.43;;
19364;SDS011;9818;48.382;10.850;2023-10-31T09:03:58;2.70;;;1.40;;
19364;SDS011;9818;48.382;10.850;2023-10-31T09:06:27;2.67;;;1.40;;
19364;SDS011;9818;48.382;10.850;2023-10-31T09:08:58;3.77;;;1.33;;
19364;SDS011;9818;48.382;10.850;2023-10-31T09:11:29;2.17;;;1.30;;
19364;SDS011;9818;48.382;10.850;2023-10-31T09:13:57;1.97;;;1.30;;
19364;SDS011;9818;48.382;10.850;2023-10-31T09:16:26;3.67;;;1.57;;
19364;SDS011;9818;48.382;10.850;2023-10-31T09:18:55;2.57;;;1.37;;
19364;SDS011;9818;48.382;10.850;2023-10-31T09:21:24;1.97;;;1.30;;
19364;SDS011;9818;48.382;10.850;2023-10-31T09:23:53;1.47;;;1.17;;
19364;SDS011;9818;48.382;10.850;2023-10-31T09:26:24;1.33;;;1.10;;
19364;SDS011;9818;48.382;10.850;2023-10-31T09:28:53;5.27;;;1.53;;
19364;SDS011;9818;48.382;10.850;2023-10-31T09:31:23;1.90;;;1.13;;
19364;SDS011;9818;48.382;10.850;2023-10-31T09:33:52;1.80;;;1.20;;
19364;SDS011;9818;48.382;10.850;2023-10-31T09:36:21;2.07;;;1.37;;
19364;SDS011;9818;48.382;10.850;2023-10-31T09:38:50;2.10;;;1.50;;
19364;SDS011;9818;48.382;10.850;2023-10-31T09:41:19;2.63;;;1.50;;
19364;SDS011;9818;48.382;10.850;2023-10-31T09:43:50;1.33;;;1.07;;
19364;SDS011;9818;48.382;10.850;2023-10-31T09:46:19;4.87;;;1.40;;
19364;SDS011;9818;48.382;10.850;2023-10-31T09:48:49;1.53;;;1.20;;
19364;SDS011;9818;48.382;10.850;2023-10-31T09:51:19;2.70;;;1.30;;
19364;SDS011;9818;48.382;10.850;2023-10-31T09:53:49;2.17;;;1.30;;
19364;SDS011;9818;48.382;10.850;2023-10-31T09:56:21;1.50;;;1.40;;
19364;SDS011;9818;48.382;10.850;2023-10-31T09:58:54;1.43;;;1.10;;
19364;SDS011;9818;48.382;10.850;2023-10-31T10:01:25;1.13;;;1.03;;
19364;SDS011;9818;48.382;10.850;2023-10-31T10:03:54;1.73;;;1.20;;
19364;SDS011;9818;48.382;10.850;2023-10-31T10:06:23;1.93;;;1.00;;
19364;SDS011;9818;48.382;10.850;2023-10-31T10:08:52;1.27;;;1.10;;
19364;SDS011;9818;48.382;10.850;2023-10-31T10:11:23;2.07;;;1.40;;
19364;SDS011;9818;48.382;10.850;2023-10-31T10:13:56;1.50;;;1.20;;
19364;SDS011;9818;48.382;10.850;2023-10-31T10:16:28;1.57;;;1.37;;
19364;SDS011;9818;48.382;10.850;2023-10-31T10:19:02;1.27;;;0.90;;
19364;SDS011;9818;48.382;10.850;2023-10-31T10:21:48;1.10;;;1.00;;
19364;SDS011;9818;48.382;10.850;2023-10-31T10:24:18;1.90;;;1.13;;
19364;SDS011;9818;48.382;10.850;2023-10-31T10:26:48;1.93;;;1.20;;
19364;SDS011;9818;48.382;10.850;2023-10-31T10:29:20;1.10;;;1.00;;
19364;SDS011;9818;48.382;10.850;2023-10-31T10:31:48;2.87;;;1.03;;
19364;SDS011;9818;48.382;10.850;2023-10-31T10:34:17;1.37;;;1.17;;
19364;SDS011;9818;48.382;10.850;2023-10-31T10:36:47;2.03;;;1.10;;
19364;SDS011;9818;48.382;10.850;2023-10-31T10:39:18;1.03;;;0.93;;
19364;SDS011;9818;48.382;10.850;2023-10-31T10:41:51;2.37;;;1.10;;
19364;SDS011;9818;48.382;10.850;2023-10-31T10:44:27;1.20;;;1.10;;
19364;SDS011;9818;48.382;10.850;2023-10-31T10:47:01;1.20;;;1.10;;
19364;SDS011;9818;48.382;10.850;2023-10-31T10:49:32;1.80;;;1.10;;
19364;SDS011;9818;48.382;10.850;2023-10-31T10:52:08;1.80;;;1.00;;
19364;SDS011;9818;48.382;10.850;2023-10-31T10:54:45;1.23;;;1.10;;
19364;SDS011;9818;48.382;10.850;2023-10-31T10:57:21;2.07;;;0.90;;
19364;SDS011;9818;48.382;10.850;2023-10-31T11:00:01;1.13;;;1.03;;
19364;SDS011;9818;48.382;10.850;2023-10-31T11:02:33;1.33;;;1.07;;
19364;SDS011;9818;48.382;10.850;2023-10-31T11:05:05;2.07;;;1.20;;
19364;SDS011;9818;48.382;10.850;2023-10-31T11:07:35;1.50;;;1.03;;
19364;SDS011;9818;48.382;10.850;2023-10-31T11:10:06;1.83;;;0.93;;
19364;SDS011;9818;48.382;10.850;2023-10-31T11:12:36;2.20;;;1.30;;
19364;SDS011;9818;48.382;10.850;2023-10-31T11:15:09;1.23;;;0.93;;
19364;SDS011;9818;48.382;10.850;2023-10-31T11:17:41;2.03;;;1.30;;
19364;SDS011;9818;48.382;10.850;2023-10-31T11:20:12;2.43;;;1.30;;
19364;SDS011;9818;48.382;10.850;2023-10-31T11:22:43;2.37;;;1.17;;
19364;SDS011;9818;48.382;10.850;2023-10-31T11:25:14;1.33;;;1.10;;
19364;SDS011;9818;48.382;10.850;2023-10-31T11:27:48;2.00;;;1.10;;
19364;SDS011;9818;48.382;10.850;2023-10-31T11:30:27;2.80;;;1.23;;
19364;SDS011;9818;48.382;10.850;2023-10-31T11:32:58;2.53;;;1.43;;
19364;SDS011;9818;48.382;10.850;2023-10-31T11:35:28;3.07;;;1.40;;
19364;SDS011;9818;48.382;10.850;2023-10-31T11:38:01;2.70;;;1.20;;
19364;SDS011;9818;48.382;10.850;2023-10-31T11:40:35;3.53;;;1.30;;
19364;SDS011;9818;48.382;10.850;2023-10-31T11:43:05;3.30;;;1.47;;
19364;SDS011;9818;48.382;10.850;2023-10-31T11:45:39;3.67;;;1.40;;
19364;SDS011;9818;48.382;10.850;2023-10-31T11:48:10;2.87;;;1.30;;
19364;SDS011;9818;48.382;10.850;2023-10-31T11:50:39;2.40;;;1.37;;
19364;SDS011;9818;48.382;10.850;2023-10-31T11:53:08;3.33;;;1.40;;
19364;SDS011;9818;48.382;10.850;2023-10-31T11:55:39;2.87;;;1.20;;
19364;SDS011;9818;48.382;10.850;2023-10-31T11:58:13;2.73;;;1.40;;
19364;SDS011;9818;48.382;10.850;2023-10-31T12:00:46;2.93;;;1.37;;
19364;SDS011;9818;48.382;10.850;2023-10-31T12:03:16;3.10;;;1.40;;
19364;SDS011;9818;48.382;10.850;2023-10-31T12:05:52;3.17;;;1.30;;
19364;SDS011;9818;48.382;10.850;2023-10-31T12:08:25;1.73;;;1.13;;
19364;SDS011;9818;48.382;10.850;2023-10-31T12:11:05;3.37;;;1.23;;
19364;SDS011;9818;48.382;10.850;2023-10-31T12:13:35;3.40;;;1.30;;
19364;SDS011;9818;48.382;10.850;2023-10-31T12:16:08;2.70;;;1.37;;
19364;SDS011;9818;48.382;10.850;2023-10-31T12:18:38;2.77;;;1.40;;
19364;SDS011;9818;48.382;10.850;2023-10-31T12:21:07;3.50;;;1.40;;
19364;SDS011;9818;48.382;10.850;2023-10-31T12:23:39;3.23;;;1.37;;
19364;SDS011;9818;48.382;10.850;2023-10-31T12:26:08;2.13;;;1.40;;
19364;SDS011;9818;48.382;10.850;2023-10-31T12:28:38;3.40;;;1.33;;
19364;SDS011;9818;48.382;10.850;2023-10-31T12:31:09;3.20;;;1.40;;
19364;SDS011;9818;48.382;10.850;2023-10-31T12:33:38;2.50;;;1.30;;
19364;SDS011;9818;48.382;10.850;2023-10-31T12:36:07;4.00;;;1.57;;
19364;SDS011;9818;48.382;10.850;2023-10-31T12:38:36;2.23;;;1.37;;
19364;SDS011;9818;48.382;10.850;2023-10-31T12:41:05;2.93;;;1.40;;
19364;SDS011;9818;48.382;10.850;2023-10-31T12:43:35;4.67;;;1.70;;
19364;SDS011;9818;48.382;10.850;2023-10-31T12:48:57;3.27;;;1.20;;
19364;SDS011;9818;48.382;10.850;2023-10-31T12:51:26;2.90;;;1.30;;
19364;SDS011;9818;48.382;10.850;2023-10-31T12:53:55;2.63;;;1.10;;
19364;SDS011;9818;48.382;10.850;2023-10-31T12:56:37;3.00;;;1.50;;
19364;SDS011;9818;48.382;10.850;2023-10-31T12:59:07;2.87;;;1.47;;
19364;SDS011;9818;48.382;10.850;2023-10-31T13:01:44;4.47;;;1.40;;
19364;SDS011;9818;48.382;10.850;2023-10-31T13:04:23;2.13;;;1.30;;
19364;SDS011;9818;48.382;10.850;2023-10-31T13:06:56;2.23;;;1.30;;
19364;SDS011;9818;48.382;10.850;2023-10-31T13:09:29;2.70;;;1.57;;
19364;SDS011;9818;48.382;10.850;2023-10-31T13:11:59;1.90;;;1.40;;
19364;SDS011;9818;48.382;10.850;2023-10-31T13:14:29;1.63;;;1.17;;
19364;SDS011;9818;48.382;10.850;2023-10-31T13:17:01;3.87;;;1.40;;
19364;SDS011;9818;48.382;10.850;2023-10-31T13:19:30;2.70;;;1.20;;
19364;SDS011;9818;48.382;10.850;2023-10-31T13:21:59;2.20;;;1.17;;
19364;SDS011;9818;48.382;10.850;2023-10-31T13:24:27;4.40;;;1.60;;
19364;SDS011;9818;48.382;10.850;2023-10-31T13:26:56;3.07;;;1.50;;
19364;SDS011;9818;48.382;10.850;2023-10-31T13:29:28;3.03;;;1.43;;
19364;SDS011;9818;48.382;10.850;2023-10-31T13:31:56;3.03;;;1.50;;
19364;SDS011;9818;48.382;10.850;2023-10-31T13:34:28;2.60;;;1.40;;
19364;SDS011;9818;48.382;10.850;2023-10-31T13:36:58;2.07;;;1.40;;
19364;SDS011;9818;48.382;10.850;2023-10-31T13:39:30;4.67;;;1.73;;
19364;SDS011;9818;48.382;10.850;2023-10-31T13:41:59;2.83;;;1.33;;
19364;SDS011;9818;48.382;10.850;2023-10-31T13:44:28;4.27;;;1.20;;
19364;SDS011;9818;48.382;10.850;2023-10-31T13:46:56;4.00;;;1.50;;
19364;SDS011;9818;48.382;10.850;2023-10-31T13:49:28;3.27;;;1.50;;
19364;SDS011;9818;48.382;10.850;2023-10-31T13:51:57;3.27;;;1.40;;
19364;SDS011;9818;48.382;10.850;2023-10-31T13:54:26;4.80;;;1.60;;
19364;SDS011;9818;48.382;10.850;2023-10-31T13:56:55;2.10;;;1.30;;
19364;SDS011;9818;48.382;10.850;2023-10-31T13:59:24;3.87;;;1.50;;
19364;SDS011;9818;48.382;10.850;2023-10-31T14:01:53;1.77;;;1.30;;
19364;SDS011;9818;48.382;10.850;2023-10-31T14:04:22;4.67;;;1.47;;
19364;SDS011;9818;48.382;10.850;2023-10-31T14:06:54;2.53;;;1.40;;
19364;SDS011;9818;48.382;10.850;2023-10-31T14:09:22;2.70;;;1.40;;
19364;SDS011;9818;48.382;10.850;2023-10-31T14:11:51;2.80;;;1.23;;
19364;SDS011;9818;48.382;10.850;2023-10-31T14:14:20;2.27;;;1.20;;
19364;SDS011;9818;48.382;10.850;2023-10-31T14:16:49;3.00;;;1.40;;
19364;SDS011;9818;48.382;10.850;2023-10-31T14:19:18;2.90;;;1.50;;
19364;SDS011;9818;48.382;10.850;2023-10-31T14:21:47;2.97;;;1.50;;
19364;SDS011;9818;48.382;10.850;2023-10-31T14:24:20;3.47;;;1.37;;
19364;SDS011;9818;48.382;10.850;2023-10-31T14:26:48;2.57;;;1.40;;
19364;SDS011;9818;48.382;10.850;2023-10-31T14:29:17;3.80;;;1.43;;
19364;SDS011;9818;48.382;10.850;2023-10-31T14:31:46;1.80;;;1.20;;
19364;SDS011;9818;48.382;10.850;2023-10-31T14:34:15;2.80;;;1.27;;
19364;SDS011;9818;48.382;10.850;2023-10-31T14:36:43;3.60;;;1.60;;
19364;SDS011;9818;48.382;10.850;2023-10-31T14:39:12;2.20;;;1.17;;
19364;SDS011;9818;48.382;10.850;2023-10-31T14:41:44;3.43;;;1.23;;
19364;SDS011;9818;48.382;10.850;2023-10-31T14:44:12;3.10;;;1.33;;
19364;SDS011;9818;48.382;10.850;2023-10-31T14:46:41;1.90;;;1.10;;
19364;SDS011;9818;48.382;10.850;2023-10-31T14:49:10;3.60;;;1.43;;
19364;SDS011;9818;48.382;10.850;2023-10-31T14:51:39;4.50;;;1.50;;
19364;SDS011;9818;48.382;10.850;2023-10-31T14:54:07;2.57;;;1.17;;
19364;SDS011;9818;48.382;10.850;2023-10-31T14:56:36;3.10;;;1.03;;
19364;SDS011;9818;48.382;10.850;2023-10-31T14:59:09;1.67;;;1.00;;
19364;SDS011;9818;48.382;10.850;2023-10-31T15:01:38;2.43;;;1.30;;
19364;SDS011;9818;48.382;10.850;2023-10-31T15:04:07;2.13;;;1.07;;